Time;durP1;ratioP1;P1;durP2;ratioP2;P2;SDS_P1;SDS_P2;PMS_P1;PMS_P2;Temp;Humidity;BMP_temperature;BMP_pressure;BME280_temperature;BME280_humidity;BME280_pressure;Samples;Min_cycle;Max_cycle;Signal;HPM_P1;HPM_P2
2021/11/18 00:01:27;;;;;;;5.43;4.60;;;8.50;99.90;;;;;;5048031;28;20268;-47
2021/11/18 00:03:54;;;;;;;7.13;5.07;;;8.50;99.90;;;;;;5050125;28;20465;-48
2021/11/18 00:06:21;;;;;;;5.33;4.70;;;8.50;99.90;;;;;;5051160;28;20498;-47
2021/11/18 00:08:47;;;;;;;7.47;4.43;;;8.50;99.90;;;;;;5035055;28;20446;-47
2021/11/18 00:11:16;;;;;;;5.50;4.40;;;8.60;99.90;;;;;;5052921;28;20523;-47
2021/11/18 00:13:45;;;;;;;6.53;4.30;;;8.60;99.90;;;;;;5057842;28;21130;-48
2021/11/18 00:16:11;;;;;;;7.00;5.10;;;8.60;99.90;;;;;;5056678;28;20445;-46
2021/11/18 00:18:38;;;;;;;7.60;4.80;;;8.50;99.90;;;;;;5054954;28;20429;-50
2021/11/18 00:21:19;;;;;;;6.73;5.53;;;8.60;99.90;;;;;;5053388;28;20634;-45
2021/11/18 00:23:53;;;;;;;8.20;5.30;;;8.60;99.90;;;;;;5055729;28;20551;-46
2021/11/18 00:26:21;;;;;;;9.23;5.57;;;8.60;99.90;;;;;;5054655;28;20426;-46
2021/11/18 00:28:47;;;;;;;6.67;5.00;;;8.60;99.90;;;;;;5052331;28;20448;-51
2021/11/18 00:31:15;;;;;;;7.50;5.50;;;8.50;99.90;;;;;;5052740;28;20454;-50
2021/11/18 00:33:41;;;;;;;7.73;5.97;;;8.60;99.90;;;;;;5056267;28;20469;-45
2021/11/18 00:36:07;;;;;;;7.97;6.00;;;8.60;99.90;;;;;;5053447;28;20524;-46
2021/11/18 00:38:35;;;;;;;9.77;6.60;;;8.70;99.90;;;;;;5041072;28;20520;-46
2021/11/18 00:41:01;;;;;;;12.77;6.67;;;8.60;99.90;;;;;;5054290;28;20837;-46
2021/11/18 00:43:27;;;;;;;10.90;5.80;;;8.60;99.90;;;;;;5056047;28;20477;-48
2021/11/18 00:45:53;;;;;;;8.80;6.63;;;8.60;99.90;;;;;;5056224;28;20195;-50
2021/11/18 00:48:19;;;;;;;8.13;6.57;;;8.60;99.90;;;;;;5058280;28;21017;-47
2021/11/18 00:50:49;;;;;;;9.30;6.40;;;8.60;99.90;;;;;;5054996;28;20434;-45
2021/11/18 00:53:16;;;;;;;10.33;6.30;;;8.50;99.90;;;;;;5053226;28;20816;-48
2021/11/18 00:55:42;;;;;;;8.60;6.53;;;8.60;99.90;;;;;;5054448;28;20499;-51
2021/11/18 00:58:07;;;;;;;10.03;6.90;;;8.60;99.90;;;;;;5058606;28;20429;-47
2021/11/18 01:00:37;;;;;;;14.13;8.50;;;8.60;99.90;;;;;;5056114;28;20310;-45
2021/11/18 01:03:03;;;;;;;10.43;7.90;;;8.50;99.90;;;;;;5053644;28;20218;-45
2021/11/18 01:05:32;;;;;;;9.70;7.43;;;8.50;99.90;;;;;;5055573;28;20433;-48
2021/11/18 01:07:59;;;;;;;9.97;7.07;;;8.50;99.90;;;;;;5053793;28;20432;-49
2021/11/18 01:10:30;;;;;;;14.10;8.20;;;8.40;99.90;;;;;;5053954;28;20440;-47
2021/11/18 01:12:56;;;;;;;13.30;7.70;;;8.40;99.90;;;;;;5051980;28;20458;-50
2021/11/18 01:15:26;;;;;;;11.00;7.80;;;8.40;99.90;;;;;;5054929;28;20437;-50
2021/11/18 01:17:53;;;;;;;12.60;8.87;;;8.40;99.90;;;;;;5037289;28;20955;-49
2021/11/18 01:20:20;;;;;;;9.17;7.13;;;8.30;99.90;;;;;;5053563;28;20441;-49
2021/11/18 01:22:45;;;;;;;12.80;8.43;;;8.40;99.90;;;;;;5054790;28;20847;-48
2021/11/18 01:25:14;;;;;;;9.47;7.30;;;8.40;99.90;;;;;;5049745;28;20443;-46
2021/11/18 01:27:41;;;;;;;10.40;8.10;;;8.40;99.90;;;;;;5051869;28;20203;-46
2021/11/18 01:30:10;;;;;;;12.17;9.33;;;8.40;99.90;;;;;;5052273;28;20503;-46
2021/11/18 01:32:36;;;;;;;11.23;8.43;;;8.50;99.90;;;;;;5049656;28;20490;-46
2021/11/18 01:35:02;;;;;;;9.83;7.50;;;8.60;99.90;;;;;;5052672;28;20457;-48
2021/11/18 01:37:27;;;;;;;16.17;9.27;;;8.70;99.90;;;;;;5052091;28;20187;-47
2021/11/18 01:39:53;;;;;;;11.93;8.90;;;8.70;99.90;;;;;;5053718;28;20481;-47
2021/11/18 01:42:19;;;;;;;11.00;8.00;;;8.60;99.90;;;;;;5049185;28;20269;-47
2021/11/18 01:44:49;;;;;;;10.43;8.33;;;8.60;99.90;;;;;;5053968;28;20176;-47
2021/11/18 01:47:15;;;;;;;10.30;7.43;;;8.70;99.90;;;;;;5042232;28;20496;-45
2021/11/18 01:49:45;;;;;;;11.47;8.23;;;8.70;99.90;;;;;;5051818;28;20672;-46
2021/11/18 01:52:14;;;;;;;10.27;8.03;;;8.70;99.90;;;;;;5050946;28;20492;-45
2021/11/18 01:54:41;;;;;;;9.27;7.07;;;8.70;99.90;;;;;;5057973;28;20479;-46
2021/11/18 01:57:11;;;;;;;13.03;8.30;;;8.70;99.90;;;;;;5052233;28;20948;-45
2021/11/18 01:59:41;;;;;;;9.50;7.20;;;8.70;99.90;;;;;;5039625;28;20541;-47
2021/11/18 02:02:08;;;;;;;12.77;8.70;;;8.70;99.90;;;;;;5053125;28;20485;-49
2021/11/18 02:04:47;;;;;;;15.00;7.97;;;8.80;99.90;;;;;;5049312;28;20480;-48
2021/11/18 02:07:13;;;;;;;11.00;7.30;;;8.80;99.90;;;;;;5051491;28;20422;-49
2021/11/18 02:09:42;;;;;;;10.20;7.90;;;8.70;99.90;;;;;;5053894;28;20426;-45
2021/11/18 02:12:12;;;;;;;9.03;6.87;;;8.80;99.90;;;;;;5050860;28;20294;-46
2021/11/18 02:14:38;;;;;;;10.03;7.10;;;8.70;99.90;;;;;;5054619;28;20508;-49
2021/11/18 02:17:10;;;;;;;9.17;6.70;;;8.70;99.90;;;;;;5051811;28;20444;-48
2021/11/18 02:19:42;;;;;;;11.53;6.73;;;8.60;99.90;;;;;;5052469;28;20430;-47
2021/11/18 02:22:09;;;;;;;8.77;6.70;;;8.60;99.90;;;;;;5051514;28;20458;-46
2021/11/18 02:24:41;;;;;;;10.63;6.33;;;8.60;99.90;;;;;;5051303;28;20793;-47
2021/11/18 02:27:10;;;;;;;11.40;6.33;;;8.60;99.90;;;;;;5053455;28;20966;-48
2021/11/18 02:29:36;;;;;;;6.97;6.20;;;8.60;99.90;;;;;;5053369;28;20437;-46
2021/11/18 02:32:06;;;;;;;9.13;5.87;;;8.60;99.90;;;;;;5049937;28;20492;-47
2021/11/18 02:34:48;;;;;;;8.03;6.03;;;8.60;99.90;;;;;;5056804;28;20453;-51
2021/11/18 02:37:14;;;;;;;8.13;6.47;;;8.60;99.90;;;;;;5033915;28;20452;-47
2021/11/18 02:39:40;;;;;;;10.93;6.60;;;8.60;99.90;;;;;;5054771;28;20444;-46
2021/11/18 02:42:08;;;;;;;7.13;6.40;;;8.60;99.90;;;;;;5053617;28;20461;-50
2021/11/18 02:44:34;;;;;;;8.03;5.77;;;8.50;99.90;;;;;;5051630;28;20247;-49
2021/11/18 02:47:02;;;;;;;7.07;5.63;;;8.60;99.90;;;;;;5039622;28;20794;-45
2021/11/18 02:49:27;;;;;;;9.23;6.17;;;8.60;99.90;;;;;;5050925;28;20449;-45
2021/11/18 02:51:53;;;;;;;8.53;6.50;;;8.60;99.90;;;;;;5053150;28;20593;-47
2021/11/18 02:54:19;;;;;;;9.13;6.13;;;8.60;99.90;;;;;;5053330;28;20777;-50
2021/11/18 02:56:45;;;;;;;8.70;5.57;;;8.60;99.90;;;;;;5055407;28;20200;-47
2021/11/18 02:59:10;;;;;;;9.07;7.03;;;8.50;99.90;;;;;;5054233;28;20250;-49
2021/11/18 03:01:39;;;;;;;9.90;6.70;;;8.50;99.90;;;;;;5055360;28;20211;-46
2021/11/18 03:04:05;;;;;;;9.70;6.30;;;8.60;99.90;;;;;;5035092;28;20207;-48
2021/11/18 03:06:31;;;;;;;8.40;6.40;;;8.60;99.90;;;;;;5055908;28;20442;-46
2021/11/18 03:08:57;;;;;;;12.13;5.93;;;8.60;99.90;;;;;;5060293;28;20201;-47
2021/11/18 03:11:25;;;;;;;10.77;6.47;;;8.60;99.90;;;;;;5053581;28;21007;-50
2021/11/18 03:13:53;;;;;;;7.33;6.50;;;8.50;99.90;;;;;;5052388;28;20188;-47
2021/11/18 03:16:19;;;;;;;7.67;5.57;;;8.50;99.90;;;;;;5056777;28;20868;-49
2021/11/18 03:18:45;;;;;;;10.10;6.77;;;8.40;99.90;;;;;;5055424;28;20449;-47
2021/11/18 03:21:14;;;;;;;7.63;6.50;;;8.40;99.90;;;;;;5057494;28;20257;-47
2021/11/18 03:23:41;;;;;;;7.47;6.20;;;8.40;99.90;;;;;;5055294;28;20469;-45
2021/11/18 03:26:08;;;;;;;9.23;6.10;;;8.50;99.90;;;;;;5051516;28;20426;-47
2021/11/18 03:28:34;;;;;;;9.10;6.67;;;8.50;99.90;;;;;;5058558;28;21317;-47
2021/11/18 03:31:03;;;;;;;9.37;6.87;;;8.50;99.90;;;;;;5054745;28;20426;-49
2021/11/18 03:33:37;;;;;;;11.40;6.80;;;8.50;99.90;;;;;;5055401;28;20521;-47
2021/11/18 03:36:04;;;;;;;8.00;6.23;;;8.50;99.90;;;;;;5055278;28;20433;-51
2021/11/18 03:38:31;;;;;;;9.30;7.10;;;8.50;99.90;;;;;;5056520;28;20494;-47
2021/11/18 03:41:04;;;;;;;8.10;6.73;;;8.50;99.90;;;;;;5054848;28;20460;-52
2021/11/18 03:43:40;;;;;;;7.27;6.37;;;8.40;99.90;;;;;;5054281;28;20493;-47
2021/11/18 03:46:06;;;;;;;9.37;6.93;;;8.40;99.90;;;;;;5055909;28;20433;-47
2021/11/18 03:48:33;;;;;;;11.63;7.57;;;8.30;99.90;;;;;;5058181;28;20454;-49
2021/11/18 03:51:02;;;;;;;10.57;7.73;;;8.40;99.90;;;;;;5056718;28;20857;-49
2021/11/18 03:53:29;;;;;;;11.53;7.33;;;8.40;99.90;;;;;;5054279;28;20803;-50
2021/11/18 03:55:55;;;;;;;11.67;7.23;;;8.40;99.90;;;;;;5056136;28;20430;-50
2021/11/18 03:58:20;;;;;;;11.10;6.90;;;8.40;99.90;;;;;;5057632;28;20474;-48
2021/11/18 04:00:46;;;;;;;14.00;7.90;;;8.50;99.90;;;;;;5054218;28;20880;-46
2021/11/18 04:03:14;;;;;;;7.93;7.13;;;8.50;99.90;;;;;;5039264;28;20233;-50
2021/11/18 04:05:41;;;;;;;9.33;6.50;;;8.60;99.90;;;;;;5053286;28;20453;-48
2021/11/18 04:08:08;;;;;;;11.23;7.63;;;8.60;99.90;;;;;;5055583;28;20441;-49
2021/11/18 04:10:35;;;;;;;12.73;7.47;;;8.60;99.90;;;;;;5056347;28;20422;-48
2021/11/18 04:13:02;;;;;;;8.60;7.20;;;8.50;99.90;;;;;;5051538;28;20453;-51
2021/11/18 04:15:29;;;;;;;9.00;6.50;;;8.50;99.90;;;;;;5055225;28;20456;-47
2021/11/18 04:17:55;;;;;;;8.33;7.17;;;8.50;99.90;;;;;;5051812;28;20437;-48
2021/11/18 04:20:23;;;;;;;8.67;7.20;;;8.50;99.90;;;;;;5053829;28;20515;-50
2021/11/18 04:22:50;;;;;;;11.30;7.90;;;8.50;99.90;;;;;;5052601;28;20572;-50
2021/11/18 04:25:19;;;;;;;9.70;6.87;;;8.50;99.90;;;;;;5053801;28;20430;-49
2021/11/18 04:27:45;;;;;;;11.07;7.30;;;8.50;99.90;;;;;;5055810;28;21005;-48
2021/11/18 04:30:15;;;;;;;8.60;6.70;;;8.50;99.90;;;;;;5053052;28;20430;-48
2021/11/18 04:32:40;;;;;;;9.03;6.67;;;8.50;99.90;;;;;;5052358;28;20629;-46
2021/11/18 04:35:07;;;;;;;10.33;7.30;;;8.50;99.90;;;;;;5040220;28;20499;-50
2021/11/18 04:37:34;;;;;;;8.37;6.70;;;8.50;99.90;;;;;;5052202;28;20191;-47
2021/11/18 04:40:00;;;;;;;10.07;7.20;;;8.40;99.90;;;;;;5054938;28;21018;-48
2021/11/18 04:42:26;;;;;;;9.20;6.80;;;8.40;99.90;;;;;;5048192;28;20453;-49
2021/11/18 04:44:52;;;;;;;11.70;6.80;;;8.40;99.90;;;;;;5051314;28;20435;-46
2021/11/18 04:47:18;;;;;;;8.80;6.90;;;8.50;99.90;;;;;;5037254;28;20826;-47
2021/11/18 04:49:45;;;;;;;8.50;7.60;;;8.60;99.90;;;;;;5052150;28;20198;-48
2021/11/18 04:52:14;;;;;;;10.13;6.63;;;8.70;99.90;;;;;;5052160;28;20199;-48
2021/11/18 04:54:40;;;;;;;11.07;7.33;;;8.70;99.90;;;;;;5053544;28;20513;-49
2021/11/18 04:57:06;;;;;;;10.87;6.97;;;8.70;99.90;;;;;;5050569;28;20437;-48
2021/11/18 04:59:33;;;;;;;11.03;7.70;;;8.70;99.90;;;;;;5057154;28;20430;-46
2021/11/18 05:01:59;;;;;;;7.47;6.57;;;8.70;99.90;;;;;;5037349;28;20449;-47
2021/11/18 05:04:25;;;;;;;10.70;7.10;;;8.70;99.90;;;;;;5052671;28;21368;-48
2021/11/18 05:06:51;;;;;;;12.20;7.97;;;8.70;99.90;;;;;;5051949;28;20454;-47
2021/11/18 05:09:17;;;;;;;9.10;6.60;;;8.60;99.90;;;;;;5054283;28;20967;-50
2021/11/18 05:11:43;;;;;;;11.93;8.07;;;8.50;99.90;;;;;;5053491;28;20253;-47
2021/11/18 05:14:10;;;;;;;9.57;7.90;;;8.60;99.90;;;;;;5053070;28;20183;-47
2021/11/18 05:16:36;;;;;;;11.90;8.10;;;8.60;99.90;;;;;;5051189;28;20521;-48
2021/11/18 05:19:02;;;;;;;9.03;7.20;;;8.60;99.90;;;;;;5053203;28;20429;-47
2021/11/18 05:21:29;;;;;;;9.37;7.40;;;8.70;99.90;;;;;;5050867;28;20524;-48
2021/11/18 05:23:57;;;;;;;12.83;7.30;;;8.60;99.90;;;;;;5053697;28;20516;-49
2021/11/18 05:26:24;;;;;;;11.10;7.40;;;8.60;99.90;;;;;;5052573;28;20445;-47
2021/11/18 05:28:50;;;;;;;8.13;7.00;;;8.60;99.90;;;;;;5050177;28;20435;-47
2021/11/18 05:31:18;;;;;;;9.73;6.70;;;8.70;99.90;;;;;;5052144;28;21024;-53
2021/11/18 05:33:45;;;;;;;8.23;7.07;;;8.60;99.90;;;;;;5053546;28;20454;-47
2021/11/18 05:36:11;;;;;;;9.27;7.60;;;8.60;99.90;;;;;;5049478;28;20430;-46
2021/11/18 05:38:37;;;;;;;9.10;7.53;;;8.60;99.90;;;;;;5053594;28;20495;-46
2021/11/18 05:41:04;;;;;;;8.73;6.60;;;8.60;99.90;;;;;;5049983;28;20437;-49
2021/11/18 05:43:31;;;;;;;14.13;8.80;;;8.60;99.90;;;;;;5053828;28;20681;-50
2021/11/18 05:45:57;;;;;;;8.50;7.10;;;8.60;99.90;;;;;;5051418;28;20426;-48
2021/11/18 05:48:23;;;;;;;9.77;7.77;;;8.70;99.90;;;;;;5050939;28;20465;-48
2021/11/18 05:50:52;;;;;;;12.10;6.80;;;8.70;99.90;;;;;;5037212;28;20479;-48
2021/11/18 05:53:20;;;;;;;12.97;7.63;;;8.80;99.90;;;;;;5056235;28;20433;-48
2021/11/18 05:55:46;;;;;;;9.80;7.10;;;8.80;99.90;;;;;;5051452;28;20425;-48
2021/11/18 05:58:12;;;;;;;12.83;7.33;;;8.80;99.90;;;;;;5055322;28;20480;-48
2021/11/18 06:00:38;;;;;;;10.83;7.07;;;8.70;99.90;;;;;;5052886;28;20430;-49
2021/11/18 06:03:04;;;;;;;9.67;6.90;;;8.80;99.90;;;;;;5058163;28;20475;-47
2021/11/18 06:05:30;;;;;;;8.90;6.57;;;8.70;99.90;;;;;;5055718;28;20188;-48
2021/11/18 06:07:57;;;;;;;8.40;7.00;;;8.80;99.90;;;;;;5054471;28;20179;-46
2021/11/18 06:10:25;;;;;;;7.80;6.80;;;8.90;99.90;;;;;;5054033;28;20425;-47
2021/11/18 06:12:52;;;;;;;8.50;6.03;;;8.80;99.90;;;;;;5055174;28;20493;-48
2021/11/18 06:15:18;;;;;;;10.10;7.70;;;8.70;99.90;;;;;;5053115;28;20429;-45
2021/11/18 06:17:43;;;;;;;10.80;7.40;;;8.70;99.90;;;;;;5051065;28;20430;-45
2021/11/18 06:20:12;;;;;;;9.97;7.23;;;8.70;99.90;;;;;;5052928;28;20429;-49
2021/11/18 06:22:38;;;;;;;7.37;6.30;;;8.70;99.90;;;;;;5052240;28;20264;-50
2021/11/18 06:25:05;;;;;;;9.30;7.23;;;8.70;99.90;;;;;;5053029;28;20454;-46
2021/11/18 06:27:31;;;;;;;7.83;6.40;;;8.80;99.90;;;;;;5051414;28;20470;-46
2021/11/18 06:29:57;;;;;;;11.47;7.17;;;8.80;99.90;;;;;;5053251;28;20542;-49
2021/11/18 06:32:22;;;;;;;7.73;6.43;;;8.70;99.90;;;;;;5057291;28;20469;-49
2021/11/18 06:34:51;;;;;;;8.83;6.73;;;8.70;99.90;;;;;;5052455;28;20187;-48
2021/11/18 06:37:17;;;;;;;11.00;7.30;;;8.70;99.90;;;;;;5054331;28;20192;-47
2021/11/18 06:39:43;;;;;;;9.13;7.00;;;8.70;99.90;;;;;;5054445;28;20425;-46
2021/11/18 06:42:11;;;;;;;10.90;7.73;;;8.70;99.90;;;;;;5054013;28;20832;-46
2021/11/18 06:44:38;;;;;;;10.20;6.47;;;8.70;99.90;;;;;;5056452;28;20469;-47
2021/11/18 06:47:05;;;;;;;9.77;7.23;;;8.70;99.90;;;;;;5052843;28;20482;-50
2021/11/18 06:49:31;;;;;;;9.50;7.40;;;8.70;99.90;;;;;;5054265;28;20445;-47
2021/11/18 06:51:57;;;;;;;10.53;7.17;;;8.70;99.90;;;;;;5055078;28;20454;-46
2021/11/18 06:54:23;;;;;;;11.00;7.13;;;8.70;99.90;;;;;;5057831;28;20507;-47
2021/11/18 06:56:49;;;;;;;10.30;6.40;;;8.70;99.90;;;;;;5052949;28;20306;-50
2021/11/18 06:59:15;;;;;;;8.90;6.80;;;8.70;99.90;;;;;;5053293;28;20195;-49
2021/11/18 07:01:42;;;;;;;11.53;7.63;;;8.70;99.90;;;;;;5053473;28;20465;-49
2021/11/18 07:04:08;;;;;;;9.47;7.10;;;8.80;99.90;;;;;;5036498;28;20982;-52
2021/11/18 07:06:36;;;;;;;9.27;6.60;;;8.80;99.90;;;;;;5029955;28;20433;-49
2021/11/18 07:09:04;;;;;;;9.00;6.70;;;8.80;99.90;;;;;;5054030;28;20469;-50
2021/11/18 07:11:31;;;;;;;9.13;6.50;;;8.80;99.90;;;;;;5056574;28;20966;-47
2021/11/18 07:13:57;;;;;;;10.47;6.73;;;8.80;99.90;;;;;;5034798;28;20547;-48
2021/11/18 07:16:24;;;;;;;9.93;8.27;;;8.80;99.90;;;;;;5052828;28;20440;-51
2021/11/18 07:18:50;;;;;;;8.10;6.53;;;8.80;99.90;;;;;;5052692;28;20457;-47
2021/11/18 07:21:17;;;;;;;9.17;7.47;;;8.80;99.90;;;;;;5053295;28;20468;-49
2021/11/18 07:23:44;;;;;;;9.87;7.43;;;8.80;99.90;;;;;;5051258;28;20505;-46
2021/11/18 07:26:14;;;;;;;10.40;7.27;;;8.90;99.90;;;;;;5054346;28;20448;-52
2021/11/18 07:28:40;;;;;;;10.10;7.30;;;8.90;99.90;;;;;;5029697;28;20433;-48
2021/11/18 07:31:06;;;;;;;10.40;7.43;;;8.90;99.90;;;;;;5050353;28;20426;-49
2021/11/18 07:33:33;;;;;;;8.23;6.57;;;8.90;99.90;;;;;;5055097;28;21407;-50
2021/11/18 07:35:59;;;;;;;11.50;7.10;;;8.90;99.90;;;;;;5054685;28;20820;-51
2021/11/18 07:38:28;;;;;;;10.00;8.67;;;8.80;99.90;;;;;;5052919;28;20962;-49
2021/11/18 07:40:54;;;;;;;7.63;6.50;;;8.80;99.90;;;;;;5055350;28;20449;-46
2021/11/18 07:43:22;;;;;;;14.07;7.97;;;9.00;99.90;;;;;;5056276;28;20823;-46
2021/11/18 07:45:50;;;;;;;10.97;8.63;;;9.00;99.90;;;;;;5025270;28;20470;-47
2021/11/18 07:48:17;;;;;;;16.17;8.53;;;8.90;99.90;;;;;;5054681;28;21034;-47
2021/11/18 07:50:43;;;;;;;11.60;8.07;;;8.90;99.90;;;;;;5058746;28;20938;-53
2021/11/18 07:53:09;;;;;;;10.63;7.20;;;9.00;99.90;;;;;;5053337;28;20453;-47
2021/11/18 07:55:35;;;;;;;14.10;7.87;;;9.00;99.90;;;;;;5057060;28;22111;-49
2021/11/18 07:58:00;;;;;;;10.90;8.10;;;8.90;99.90;;;;;;5057418;28;20449;-47
2021/11/18 08:00:27;;;;;;;12.30;8.07;;;9.00;99.90;;;;;;5057888;28;20191;-48
2021/11/18 08:02:53;;;;;;;10.20;7.57;;;8.90;99.90;;;;;;5056537;28;20272;-48
2021/11/18 08:05:19;;;;;;;12.37;8.10;;;9.00;99.90;;;;;;5052866;28;20434;-49
2021/11/18 08:07:45;;;;;;;12.70;7.77;;;9.00;99.90;;;;;;5053170;28;20533;-50
2021/11/18 08:10:12;;;;;;;10.50;7.87;;;9.00;99.90;;;;;;5055767;28;20473;-47
2021/11/18 08:12:38;;;;;;;11.70;7.63;;;9.00;99.90;;;;;;5051833;28;20204;-51
2021/11/18 08:15:05;;;;;;;10.70;7.83;;;9.00;99.90;;;;;;5057277;28;20441;-50
2021/11/18 08:17:31;;;;;;;11.33;7.37;;;9.10;99.90;;;;;;5050392;28;20199;-47
2021/11/18 08:19:56;;;;;;;14.37;8.03;;;9.20;99.90;;;;;;5055028;28;20441;-47
2021/11/18 08:22:22;;;;;;;9.40;7.40;;;9.20;99.90;;;;;;5053374;28;20222;-52
2021/11/18 08:24:48;;;;;;;10.20;7.43;;;9.20;99.90;;;;;;5055313;28;20207;-49
2021/11/18 08:27:13;;;;;;;10.90;7.50;;;9.10;99.90;;;;;;5054313;28;20187;-48
2021/11/18 08:29:39;;;;;;;12.30;7.50;;;9.30;99.90;;;;;;5055256;28;20214;-50
2021/11/18 08:32:06;;;;;;;8.93;6.63;;;9.30;99.90;;;;;;5054699;28;20250;-50
2021/11/18 08:34:32;;;;;;;8.30;7.00;;;9.30;99.90;;;;;;5052635;28;20897;-50
2021/11/18 08:36:58;;;;;;;13.67;6.30;;;9.30;99.90;;;;;;5058086;28;20438;-49
2021/11/18 08:39:25;;;;;;;8.00;6.70;;;9.20;99.90;;;;;;5053845;28;20483;-52
2021/11/18 08:42:04;;;;;;;11.37;7.97;;;9.30;99.90;;;;;;5054321;28;20461;-49
2021/11/18 08:44:33;;;;;;;9.23;8.07;;;9.30;99.90;;;;;;5053162;28;20825;-50
2021/11/18 08:46:59;;;;;;;11.13;7.87;;;9.30;99.90;;;;;;5055295;28;20453;-50
2021/11/18 08:49:25;;;;;;;10.67;6.80;;;9.40;99.90;;;;;;5052844;28;20441;-54
2021/11/18 08:51:53;;;;;;;8.50;7.60;;;9.30;99.90;;;;;;5054602;28;20940;-47
2021/11/18 08:54:27;;;;;;;11.13;7.80;;;9.30;99.90;;;;;;5039248;28;20526;-50
2021/11/18 08:56:55;;;;;;;10.80;8.20;;;9.30;99.90;;;;;;5052565;28;20445;-51
2021/11/18 08:59:22;;;;;;;9.30;7.10;;;9.30;99.90;;;;;;5055270;28;20502;-50
2021/11/18 09:01:54;;;;;;;10.23;7.90;;;9.30;99.90;;;;;;5053629;28;20492;-50
2021/11/18 09:04:22;;;;;;;8.97;6.90;;;9.40;99.90;;;;;;5053511;28;20509;-52
2021/11/18 09:06:49;;;;;;;12.37;8.60;;;9.50;99.90;;;;;;5056248;28;20442;-48
2021/11/18 09:09:17;;;;;;;13.40;7.30;;;9.50;99.90;;;;;;5053471;28;20446;-52
2021/11/18 09:11:45;;;;;;;9.93;8.20;;;9.60;99.90;;;;;;5053952;28;20469;-50
2021/11/18 09:14:11;;;;;;;12.60;8.50;;;9.70;99.90;;;;;;5053111;28;20437;-48
2021/11/18 09:16:39;;;;;;;8.73;7.37;;;9.60;99.90;;;;;;5052295;28;20443;-50
2021/11/18 09:19:06;;;;;;;13.70;7.70;;;9.50;99.90;;;;;;5051761;28;20445;-53
2021/11/18 09:21:32;;;;;;;13.33;7.53;;;9.50;99.90;;;;;;5053447;28;20841;-50
2021/11/18 09:24:05;;;;;;;9.13;7.07;;;9.50;99.90;;;;;;5055716;28;20472;-50
2021/11/18 09:26:35;;;;;;;15.13;7.27;;;9.60;99.90;;;;;;5050954;28;20584;-51
2021/11/18 09:29:02;;;;;;;9.27;7.00;;;9.60;99.90;;;;;;5053445;28;20513;-50
2021/11/18 09:31:29;;;;;;;11.47;7.10;;;9.60;99.90;;;;;;5055286;28;20476;-52
2021/11/18 09:33:55;;;;;;;9.10;8.00;;;9.60;99.90;;;;;;5052701;28;20453;-51
2021/11/18 09:36:23;;;;;;;10.90;7.80;;;9.60;99.90;;;;;;5054594;28;20434;-48
2021/11/18 09:38:50;;;;;;;11.43;7.57;;;9.70;99.90;;;;;;5052213;28;20444;-53
2021/11/18 09:41:27;;;;;;;10.57;7.83;;;9.60;99.90;;;;;;5052142;28;21123;-54
2021/11/18 09:44:11;;;;;;;9.53;7.33;;;9.70;99.90;;;;;;5054488;28;20518;-47
2021/11/18 09:46:49;;;;;;;9.33;7.80;;;9.80;99.90;;;;;;5052483;28;20548;-48
2021/11/18 09:49:35;;;;;;;8.60;7.13;;;9.80;99.90;;;;;;5052334;28;20495;-48
2021/11/18 09:52:38;;;;;;;8.90;6.77;;;9.90;99.90;;;;;;5052200;28;20442;-53
2021/11/18 09:55:18;;;;;;;8.30;6.00;;;9.90;99.90;;;;;;5056407;28;20444;-49
2021/11/18 09:58:16;;;;;;;7.73;5.90;;;9.80;99.90;;;;;;5038532;28;20640;-50
2021/11/18 10:01:03;;;;;;;7.50;6.40;;;9.70;99.90;;;;;;5053319;28;20524;-51
2021/11/18 10:03:54;;;;;;;8.43;6.17;;;9.80;99.90;;;;;;5050116;28;20488;-54
2021/11/18 10:06:31;;;;;;;7.77;6.17;;;9.80;99.90;;;;;;5050071;28;20444;-50
2021/11/18 10:09:01;;;;;;;8.43;6.17;;;9.90;99.90;;;;;;5057152;28;21055;-50
2021/11/18 10:11:50;;;;;;;8.03;6.30;;;9.90;99.90;;;;;;5047574;28;20549;-52
2021/11/18 10:14:45;;;;;;;6.40;5.30;;;10.00;99.90;;;;;;5044164;28;20452;-50
2021/11/18 10:17:11;;;;;;;9.00;5.90;;;10.00;99.90;;;;;;5021045;28;20511;-51
2021/11/18 10:19:42;;;;;;;7.23;5.87;;;10.00;99.90;;;;;;5055403;28;20437;-53
2021/11/18 10:22:12;;;;;;;10.50;6.87;;;10.10;99.90;;;;;;5055549;28;20478;-51
2021/11/18 10:24:40;;;;;;;9.07;5.90;;;10.00;99.90;;;;;;5058512;28;20469;-50
2021/11/18 10:27:27;;;;;;;7.03;5.53;;;10.00;99.90;;;;;;5057299;28;20429;-50
2021/11/18 10:29:53;;;;;;;6.40;5.00;;;10.10;99.90;;;;;;5059803;28;20835;-50
2021/11/18 10:32:22;;;;;;;7.57;6.40;;;10.10;99.90;;;;;;5059255;28;20469;-50
2021/11/18 10:35:00;;;;;;;6.47;5.30;;;10.20;99.90;;;;;;5057916;28;20195;-51
2021/11/18 10:37:35;;;;;;;8.03;6.00;;;10.20;99.90;;;;;;5057918;28;20876;-53
2021/11/18 10:40:22;;;;;;;9.23;5.90;;;10.30;99.90;;;;;;5061435;28;20432;-52
2021/11/18 10:43:17;;;;;;;9.40;6.27;;;10.30;99.90;;;;;;5057803;28;20989;-51
2021/11/18 10:45:47;;;;;;;8.70;7.20;;;10.50;99.90;;;;;;5046125;28;20442;-52
2021/11/18 10:48:24;;;;;;;8.30;6.03;;;10.80;99.90;;;;;;5055368;28;21053;-52
2021/11/18 10:51:00;;;;;;;8.37;7.07;;;10.90;99.90;;;;;;5048983;28;20451;-52
2021/11/18 10:53:28;;;;;;;8.57;6.53;;;10.80;99.90;;;;;;5060090;28;20469;-50
2021/11/18 10:55:59;;;;;;;8.63;6.17;;;10.80;99.90;;;;;;5053828;28;20503;-49
2021/11/18 10:58:24;;;;;;;9.27;6.20;;;10.70;99.90;;;;;;5057013;28;20425;-48
2021/11/18 11:00:55;;;;;;;8.37;6.20;;;10.60;99.90;;;;;;5054687;28;20439;-49
2021/11/18 11:03:25;;;;;;;8.80;6.37;;;10.60;99.90;;;;;;5058269;28;20747;-48
2021/11/18 11:06:12;;;;;;;9.40;6.17;;;10.50;99.90;;;;;;5053418;28;20434;-53
2021/11/18 11:08:39;;;;;;;13.53;7.60;;;10.50;99.90;;;;;;5054544;28;20434;-48
2021/11/18 11:11:27;;;;;;;7.70;5.17;;;10.40;99.90;;;;;;5056321;28;20441;-49
2021/11/18 11:14:26;;;;;;;8.70;5.63;;;10.60;99.90;;;;;;5058125;28;20555;-46
2021/11/18 11:17:11;;;;;;;6.60;5.53;;;10.40;99.90;;;;;;5052569;28;20525;-46
2021/11/18 11:19:48;;;;;;;7.20;6.07;;;10.50;99.90;;;;;;5056682;28;20541;-46
2021/11/18 11:22:32;;;;;;;6.90;5.37;;;10.40;99.90;;;;;;5056604;28;20448;-48
2021/11/18 11:25:04;;;;;;;9.50;6.93;;;10.40;99.90;;;;;;5055822;28;20466;-47
2021/11/18 11:27:46;;;;;;;6.90;5.80;;;10.40;99.90;;;;;;5054025;28;20981;-49
2021/11/18 11:30:36;;;;;;;7.60;6.20;;;10.40;99.90;;;;;;5055458;28;20487;-46
2021/11/18 11:33:16;;;;;;;8.20;5.47;;;10.40;99.90;;;;;;5055765;28;20484;-50
2021/11/18 11:35:44;;;;;;;7.97;5.97;;;10.30;99.90;;;;;;5053680;28;20449;-48
2021/11/18 11:38:25;;;;;;;8.43;6.20;;;10.40;99.90;;;;;;5055529;28;20426;-50
2021/11/18 11:41:03;;;;;;;7.70;6.40;;;10.20;99.90;;;;;;5055176;28;20437;-46
2021/11/18 11:43:38;;;;;;;10.83;6.50;;;10.30;99.90;;;;;;5054882;28;20471;-46
2021/11/18 11:46:31;;;;;;;8.73;6.57;;;10.30;99.90;;;;;;5041216;28;20433;-47
2021/11/18 11:49:11;;;;;;;11.03;7.30;;;10.30;99.90;;;;;;5056274;28;20433;-49
2021/11/18 11:51:50;;;;;;;10.70;7.67;;;10.40;99.90;;;;;;5054474;28;20450;-47
2021/11/18 11:54:37;;;;;;;11.30;7.40;;;10.20;99.90;;;;;;5057840;28;20474;-48
2021/11/18 11:57:25;;;;;;;10.87;6.70;;;10.20;99.90;;;;;;5053863;28;20442;-48
2021/11/18 12:00:13;;;;;;;9.63;7.60;;;10.30;99.90;;;;;;5055376;28;21102;-47
2021/11/18 12:02:48;;;;;;;11.43;7.40;;;10.40;99.90;;;;;;5056712;28;20813;-48
2021/11/18 12:05:23;;;;;;;9.00;7.17;;;10.30;99.90;;;;;;5054377;28;20441;-48
2021/11/18 12:08:21;;;;;;;9.53;7.40;;;10.40;99.90;;;;;;5054462;28;21031;-51
2021/11/18 12:11:04;;;;;;;12.87;7.50;;;10.30;99.90;;;;;;5002454;28;20541;-46
2021/11/18 12:13:54;;;;;;;11.40;7.20;;;10.30;99.90;;;;;;5054187;28;20441;-49
2021/11/18 12:16:46;;;;;;;10.93;7.63;;;10.40;99.90;;;;;;5055255;28;20810;-48
2021/11/18 12:19:25;;;;;;;11.20;7.37;;;10.50;99.90;;;;;;5052995;28;20437;-47
2021/11/18 12:21:52;;;;;;;9.27;6.83;;;10.60;99.90;;;;;;5054355;28;21073;-47
2021/11/18 12:24:20;;;;;;;11.10;7.17;;;10.60;99.90;;;;;;5054928;28;20466;-48
2021/11/18 12:27:21;;;;;;;9.37;7.20;;;10.50;99.90;;;;;;5050817;28;20434;-51
2021/11/18 12:29:50;;;;;;;11.70;7.57;;;10.50;99.90;;;;;;5055812;28;20958;-48
2021/11/18 12:32:16;;;;;;;10.13;8.07;;;10.50;99.90;;;;;;5056657;28;20502;-46
2021/11/18 12:34:57;;;;;;;12.67;8.00;;;10.50;99.90;;;;;;5055158;28;21023;-48
2021/11/18 12:37:49;;;;;;;11.47;8.37;;;10.50;99.90;;;;;;5056390;28;20195;-48
2021/11/18 12:40:28;;;;;;;12.53;8.90;;;10.50;99.90;;;;;;5017976;28;20840;-47
2021/11/18 12:43:08;;;;;;;13.00;9.50;;;10.60;99.90;;;;;;5052509;28;20465;-47
2021/11/18 12:46:00;;;;;;;12.83;8.80;;;10.60;99.90;;;;;;5054717;28;20495;-50
2021/11/18 12:48:52;;;;;;;12.37;8.57;;;10.50;99.90;;;;;;5049324;28;20460;-48
2021/11/18 12:51:35;;;;;;;13.17;8.77;;;10.50;99.90;;;;;;5055691;28;20917;-47
2021/11/18 12:54:12;;;;;;;13.73;8.80;;;10.40;99.90;;;;;;5052091;28;20448;-49
2021/11/18 12:57:02;;;;;;;16.37;8.70;;;10.50;99.90;;;;;;5055205;28;20462;-46
2021/11/18 12:59:42;;;;;;;14.90;8.37;;;10.50;99.90;;;;;;5031403;28;20568;-48
2021/11/18 13:02:14;;;;;;;15.97;8.87;;;10.60;99.90;;;;;;5050862;28;20477;-49
2021/11/18 13:04:52;;;;;;;15.67;8.87;;;10.60;99.90;;;;;;5039807;28;20971;-52
2021/11/18 13:07:33;;;;;;;12.87;8.33;;;10.60;99.90;;;;;;5053249;28;20433;-50